createdAt,value
2019-04-05T00:00:14.754Z,10.13
2019-04-05T00:02:44.256Z,9.67
2019-04-05T00:05:14.344Z,9.63
2019-04-05T00:07:43.857Z,10.40
2019-04-05T00:10:14.547Z,10.70
2019-04-05T00:12:44.195Z,9.63
2019-04-05T00:15:15.959Z,9.97
2019-04-05T00:17:45.773Z,10.00
2019-04-05T00:20:17.020Z,9.33
2019-04-05T00:22:46.506Z,9.33
2019-04-05T00:25:16.127Z,9.47
2019-04-05T00:27:45.624Z,9.40
2019-04-05T00:30:15.592Z,9.00
2019-04-05T00:32:45.048Z,9.50
2019-04-05T00:35:14.721Z,10.00
2019-04-05T00:37:44.197Z,9.83
2019-04-05T00:40:14.253Z,9.80
2019-04-05T00:42:43.773Z,9.70
2019-04-05T00:45:32.577Z,9.70
2019-04-05T00:48:02.244Z,9.03
2019-04-05T00:50:31.766Z,9.07
2019-04-05T00:53:01.271Z,9.40
2019-04-05T00:55:30.774Z,9.57
2019-04-05T00:58:00.511Z,9.43
2019-04-05T01:00:49.327Z,8.93
2019-04-05T01:03:18.811Z,9.03
2019-04-05T01:05:48.679Z,8.90
2019-04-05T01:08:18.333Z,9.50
2019-04-05T01:10:47.977Z,9.07
2019-04-05T01:13:17.831Z,9.63
2019-04-05T01:15:47.330Z,9.20
2019-04-05T01:18:17.096Z,9.47
2019-04-05T01:20:50.029Z,8.77
2019-04-05T01:23:21.052Z,8.27
2019-04-05T01:26:10.299Z,8.30
2019-04-05T01:28:42.903Z,8.33
2019-04-05T01:31:31.665Z,8.07
2019-04-05T01:34:01.217Z,7.53
2019-04-05T01:36:30.704Z,8.90
2019-04-05T01:39:00.145Z,8.53
2019-04-05T01:41:30.256Z,8.23
2019-04-05T01:43:59.867Z,8.47
2019-04-05T01:46:29.419Z,8.20
2019-04-05T01:48:59.338Z,8.90
2019-04-05T01:51:28.824Z,9.47
2019-04-05T01:54:17.615Z,8.77
2019-04-05T01:56:47.098Z,8.63
2019-04-05T01:59:16.660Z,8.37
2019-04-05T02:01:46.329Z,8.43
2019-04-05T02:04:15.811Z,8.07
2019-04-05T02:06:45.601Z,8.37
2019-04-05T02:09:16.830Z,8.20
2019-04-05T02:11:47.907Z,8.20
2019-04-05T02:14:19.232Z,8.93
2019-04-05T02:16:49.026Z,8.57
2019-04-05T02:19:20.278Z,8.70
2019-04-05T02:21:49.790Z,8.67
2019-04-05T02:24:19.262Z,8.93
2019-04-05T02:26:49.059Z,9.57
2019-04-05T02:29:18.541Z,8.47
2019-04-05T02:31:49.885Z,9.27
2019-04-05T02:34:38.662Z,9.17
2019-04-05T02:37:09.935Z,8.70
2019-04-05T02:39:39.582Z,9.17
2019-04-05T02:42:12.543Z,9.00
2019-04-05T02:44:46.289Z,8.67
2019-04-05T02:47:16.487Z,8.77
2019-04-05T02:49:47.977Z,9.77
2019-04-05T02:52:21.491Z,8.53
2019-04-05T02:54:53.274Z,9.10
2019-04-05T02:57:23.570Z,8.90
2019-04-05T02:59:54.411Z,8.90
2019-04-05T03:02:24.698Z,9.17
2019-04-05T03:04:54.998Z,8.67
2019-04-05T03:07:27.036Z,8.77
2019-04-05T03:09:59.131Z,7.93
2019-04-05T03:12:29.799Z,8.10
2019-04-05T03:15:03.417Z,8.60
2019-04-05T03:17:36.481Z,8.30
2019-04-05T03:20:08.379Z,8.90
2019-04-05T03:22:38.657Z,8.60
2019-04-05T03:25:08.859Z,8.97
2019-04-05T03:27:39.954Z,8.50
2019-04-05T03:30:09.944Z,8.73
2019-04-05T03:32:49.197Z,8.57
2019-04-05T03:35:19.212Z,8.00
2019-04-05T03:37:48.863Z,8.23
2019-04-05T03:40:18.591Z,8.83
2019-04-05T03:42:48.502Z,8.73
2019-04-05T03:45:18.576Z,8.30
2019-04-05T03:47:48.617Z,8.30
2019-04-05T03:50:19.526Z,8.97
2019-04-05T03:52:49.171Z,9.43
2019-04-05T03:55:19.126Z,8.93
2019-04-05T03:57:49.141Z,9.50
2019-04-05T04:00:18.991Z,9.23
2019-04-05T04:02:48.947Z,9.10
2019-04-05T04:05:18.865Z,8.03
2019-04-05T04:07:48.509Z,11.00
2019-04-05T04:10:19.844Z,8.43
2019-04-05T04:12:50.293Z,7.87
2019-04-05T04:15:21.606Z,8.70
2019-04-05T04:17:51.720Z,8.53
2019-04-05T04:20:26.651Z,9.63
2019-04-05T04:22:56.274Z,9.23
2019-04-05T04:25:25.995Z,9.80
2019-04-05T04:27:55.762Z,8.73
2019-04-05T04:30:27.582Z,8.53
2019-04-05T04:32:57.676Z,8.17
2019-04-05T04:35:30.835Z,8.60
2019-04-05T04:38:01.180Z,8.50
2019-04-05T04:40:32.326Z,8.50
2019-04-05T04:43:03.245Z,7.90
2019-04-05T04:45:34.241Z,8.33
2019-04-05T04:48:04.509Z,8.33
2019-04-05T04:50:35.412Z,8.77
2019-04-05T04:53:05.468Z,8.93
2019-04-05T04:55:36.269Z,8.40
2019-04-05T04:58:06.609Z,8.87
2019-04-05T05:00:36.927Z,9.23
2019-04-05T05:03:06.763Z,9.33
2019-04-05T05:05:36.733Z,9.67
2019-04-05T05:08:06.924Z,9.80
2019-04-05T05:10:36.918Z,9.13
2019-04-05T05:13:06.836Z,8.90
2019-04-05T05:15:36.931Z,8.53
2019-04-05T05:18:06.726Z,9.00
2019-04-05T05:20:36.947Z,8.93
2019-04-05T05:23:06.716Z,9.03
2019-04-05T05:25:36.402Z,9.80
2019-04-05T05:28:06.608Z,9.23
2019-04-05T05:30:36.505Z,9.47
2019-04-05T05:33:06.421Z,9.10
2019-04-05T05:35:36.306Z,9.90
2019-04-05T05:38:25.129Z,8.57
2019-04-05T05:40:54.923Z,8.73
2019-04-05T05:43:24.547Z,10.00
2019-04-05T05:45:54.052Z,9.30
2019-04-05T05:48:23.921Z,9.57
2019-04-05T05:50:54.925Z,9.53
2019-04-05T05:53:24.742Z,9.93
2019-04-05T05:55:54.224Z,9.70
2019-04-05T05:58:25.878Z,8.60
2019-04-05T06:00:54.893Z,9.87
2019-04-05T06:03:43.714Z,9.27
2019-04-05T06:06:13.195Z,10.00
2019-04-05T06:08:42.668Z,9.60
2019-04-05T06:11:12.181Z,9.77
2019-04-05T06:13:41.687Z,10.00
2019-04-05T06:16:11.245Z,9.40
2019-04-05T06:18:40.743Z,9.43
2019-04-05T06:21:10.471Z,8.73
2019-04-05T06:23:39.932Z,9.07
2019-04-05T06:26:09.484Z,8.87
2019-04-05T06:28:39.282Z,8.73
2019-04-05T06:31:10.365Z,9.60
2019-04-05T06:33:40.229Z,8.80
2019-04-05T06:36:09.717Z,9.27
2019-04-05T06:38:39.215Z,8.17
2019-04-05T06:41:09.093Z,9.50
2019-04-05T06:43:38.577Z,10.00
2019-04-05T06:46:08.082Z,9.57
2019-04-05T06:48:37.727Z,10.57
2019-04-05T06:51:07.352Z,12.03
2019-04-05T06:53:36.803Z,12.53
2019-04-05T06:56:06.446Z,13.70
2019-04-05T06:58:35.915Z,13.80
2019-04-05T07:01:05.529Z,16.73
2019-04-05T07:03:35.067Z,15.80
2019-04-05T07:06:04.588Z,16.00
2019-04-05T07:08:34.055Z,15.03
2019-04-05T07:11:03.564Z,15.90
2019-04-05T07:13:33.152Z,17.27
2019-04-05T07:16:02.653Z,16.87
2019-04-05T07:18:36.014Z,16.57
2019-04-05T07:21:03.428Z,16.97
2019-04-05T07:23:32.906Z,15.57
2019-04-05T07:26:02.474Z,14.73
2019-04-05T07:28:31.962Z,14.37
2019-04-05T07:31:01.429Z,14.43
2019-04-05T07:33:31.242Z,14.77
2019-04-05T07:36:04.355Z,14.20
2019-04-05T07:38:33.862Z,13.70
2019-04-05T07:41:03.394Z,14.47
2019-04-05T07:43:32.893Z,15.13
2019-04-05T07:46:02.784Z,16.20
2019-04-05T07:48:43.788Z,16.47
2019-04-05T07:51:03.551Z,17.67
2019-04-05T07:53:33.036Z,17.60
2019-04-05T07:56:03.237Z,17.60
2019-04-05T07:58:32.716Z,18.50
2019-04-05T08:01:05.502Z,17.93
2019-04-05T08:03:35.029Z,18.07
2019-04-05T08:06:04.941Z,18.50
2019-04-05T08:08:38.988Z,19.17
2019-04-05T08:11:08.807Z,20.17
2019-04-05T08:13:41.796Z,19.77
2019-04-05T08:16:11.356Z,20.23
2019-04-05T08:18:41.087Z,20.53
2019-04-05T08:21:10.715Z,19.13
2019-04-05T08:23:40.261Z,20.67
2019-04-05T08:26:09.811Z,18.70
2019-04-05T08:28:39.291Z,19.83
2019-04-05T08:31:10.860Z,17.93
2019-04-05T08:33:40.050Z,18.93
2019-04-05T08:36:11.126Z,19.83
2019-04-05T08:38:44.738Z,19.67
2019-04-05T08:41:14.300Z,18.90
2019-04-05T08:43:43.819Z,20.13
2019-04-05T08:46:13.409Z,20.70
2019-04-05T08:48:42.917Z,17.23
2019-04-05T08:51:12.422Z,17.97
2019-04-05T08:53:41.925Z,17.40
2019-04-05T08:56:11.451Z,16.53
2019-04-05T08:58:40.957Z,17.17
2019-04-05T09:01:10.479Z,15.30
2019-04-05T09:03:59.314Z,16.50
2019-04-05T09:06:28.830Z,16.42
2019-04-05T09:08:58.295Z,15.40
2019-04-05T09:11:27.787Z,15.23
2019-04-05T09:13:57.296Z,14.55
2019-04-05T09:16:26.863Z,16.25
2019-04-05T09:18:56.365Z,15.10
2019-04-05T09:21:25.836Z,14.45
2019-04-05T09:23:55.338Z,14.10
2019-04-05T09:26:25.167Z,14.45
2019-04-05T09:28:55.331Z,14.73
2019-04-05T09:31:24.859Z,13.83
2019-04-05T09:33:54.409Z,13.35
2019-04-05T09:36:23.886Z,13.90
2019-04-05T09:38:53.390Z,13.48
2019-04-05T09:41:22.900Z,14.07
2019-04-05T09:43:52.392Z,14.47
2019-04-05T09:46:21.867Z,14.83
2019-04-05T09:48:51.372Z,14.07
2019-04-05T09:51:20.832Z,15.33
2019-04-05T09:53:50.402Z,16.13
2019-04-05T09:56:19.924Z,15.73
2019-04-05T09:58:49.423Z,15.07
2019-04-05T10:01:18.959Z,13.87
2019-04-05T10:03:48.464Z,13.03
2019-04-05T10:06:17.950Z,11.93
2019-04-05T10:08:47.449Z,13.80
2019-04-05T10:11:16.917Z,14.43
2019-04-05T10:13:46.391Z,13.87
2019-04-05T10:16:15.896Z,13.07
2019-04-05T10:18:45.579Z,11.83
2019-04-05T10:21:14.949Z,11.57
2019-04-05T10:23:44.409Z,12.37
2019-04-05T10:26:13.903Z,10.43
2019-04-05T10:28:43.388Z,10.93
2019-04-05T10:31:12.927Z,10.63
2019-04-05T10:33:42.451Z,11.30
2019-04-05T10:36:11.944Z,10.50
2019-04-05T10:39:00.746Z,9.80
2019-04-05T10:41:30.220Z,9.93
2019-04-05T10:43:59.723Z,12.43
2019-04-05T10:46:29.333Z,11.67
2019-04-05T10:48:58.858Z,12.57
2019-04-05T10:51:29.817Z,12.60
2019-04-05T10:54:18.726Z,11.67
2019-04-05T10:56:48.213Z,12.60
2019-04-05T10:59:17.691Z,12.40
2019-04-05T11:01:47.198Z,12.20
2019-04-05T11:04:16.848Z,8.13
2019-04-05T11:06:47.573Z,6.10
2019-04-05T11:09:17.066Z,6.27
2019-04-05T11:11:46.550Z,6.23
2019-04-05T11:14:16.037Z,6.70
2019-04-05T11:16:57.894Z,6.00
2019-04-05T11:19:16.723Z,6.47
2019-04-05T11:21:47.904Z,6.43
2019-04-05T11:24:17.432Z,6.30
2019-04-05T11:26:46.886Z,6.30
2019-04-05T11:29:16.352Z,7.10
2019-04-05T11:31:56.382Z,6.93
2019-04-05T11:34:17.934Z,6.43
2019-04-05T11:36:47.873Z,7.20
2019-04-05T11:39:17.660Z,6.50
2019-04-05T11:41:50.124Z,6.73
2019-04-05T11:44:19.894Z,7.13
2019-04-05T11:47:08.727Z,7.33
2019-04-05T11:49:39.827Z,7.87
2019-04-05T11:52:10.819Z,7.67
2019-04-05T11:54:40.384Z,6.80
2019-04-05T11:57:09.935Z,7.17
2019-04-05T11:59:39.690Z,7.37
2019-04-05T12:02:10.805Z,6.93
2019-04-05T12:04:42.694Z,7.10
2019-04-05T12:07:11.492Z,7.53
2019-04-05T12:09:41.030Z,6.80
2019-04-05T12:12:10.488Z,7.20
2019-04-05T12:14:39.956Z,7.63
2019-04-05T12:17:09.804Z,6.93
2019-04-05T12:19:39.402Z,7.83
2019-04-05T12:22:09.353Z,8.20
2019-04-05T12:24:38.964Z,8.03
2019-04-05T12:27:08.522Z,7.57
2019-04-05T12:29:37.987Z,8.50
2019-04-05T12:32:07.555Z,7.30
2019-04-05T12:34:37.009Z,7.87
2019-04-05T12:37:06.568Z,8.33
2019-04-05T12:39:37.184Z,7.80
2019-04-05T12:42:06.915Z,7.50
2019-04-05T12:44:36.384Z,9.53
2019-04-05T12:47:06.373Z,9.07
2019-04-05T12:49:35.858Z,9.13
2019-04-05T12:52:05.554Z,9.03
2019-04-05T12:54:35.056Z,9.40
2019-04-05T12:57:04.606Z,9.27
2019-04-05T12:59:34.103Z,9.77
2019-04-05T13:02:03.575Z,9.10
2019-04-05T13:04:33.090Z,9.20
2019-04-05T13:07:02.571Z,9.13
2019-04-05T13:09:32.463Z,9.53
2019-04-05T13:12:02.260Z,9.63
2019-04-05T13:14:31.717Z,9.57
2019-04-05T13:17:02.628Z,9.87
2019-04-05T13:19:32.292Z,9.63
2019-04-05T13:22:22.819Z,9.50
2019-04-05T13:24:52.326Z,9.50
2019-04-05T13:27:21.797Z,10.40
2019-04-05T13:29:51.322Z,10.67
2019-04-05T13:32:22.347Z,10.43
2019-04-05T13:34:53.554Z,10.47
2019-04-05T13:37:23.336Z,10.40
2019-04-05T13:39:52.827Z,11.47
2019-04-05T13:42:22.311Z,11.63
2019-04-05T13:44:51.832Z,11.67
2019-04-05T13:47:21.321Z,12.53
2019-04-05T13:49:50.966Z,12.03
2019-04-05T13:52:20.568Z,12.77
2019-04-05T13:54:50.049Z,14.17
2019-04-05T13:57:19.545Z,14.87
2019-04-05T13:59:49.444Z,14.53
2019-04-05T14:02:21.184Z,14.63
2019-04-05T14:04:53.601Z,16.77
2019-04-05T14:07:23.636Z,16.40
2019-04-05T14:09:52.717Z,16.17
2019-04-05T14:12:22.175Z,16.93
2019-04-05T14:14:51.902Z,16.80
2019-04-05T14:17:21.489Z,17.53
2019-04-05T14:19:50.935Z,16.83
2019-04-05T14:22:22.414Z,18.07
2019-04-05T14:24:52.936Z,17.17
2019-04-05T14:27:23.168Z,16.93
2019-04-05T14:29:52.912Z,18.33
2019-04-05T14:32:41.715Z,18.77
2019-04-05T14:35:11.819Z,24.80
2019-04-05T14:37:41.339Z,18.80
2019-04-05T14:40:14.020Z,18.27
2019-04-05T14:42:45.015Z,17.67
2019-04-05T14:45:14.872Z,17.30
2019-04-05T14:48:03.703Z,18.30
2019-04-05T14:50:34.670Z,18.23
2019-04-05T14:53:23.514Z,17.47
2019-04-05T14:55:52.995Z,18.30
2019-04-05T14:58:22.549Z,18.53
2019-04-05T15:00:52.081Z,18.53
2019-04-05T15:03:21.573Z,19.07
2019-04-05T15:05:51.115Z,19.97
2019-04-05T15:08:21.219Z,19.50
2019-04-05T15:10:51.483Z,20.63
2019-04-05T15:13:21.107Z,19.67
2019-04-05T15:16:11.656Z,19.50
2019-04-05T15:19:03.013Z,20.03
2019-04-05T15:21:34.677Z,20.60
2019-04-05T15:24:23.007Z,19.97
2019-04-05T15:26:52.735Z,19.80
2019-04-05T15:29:25.841Z,21.77
2019-04-05T15:31:55.500Z,22.43
2019-04-05T15:34:28.004Z,22.93
2019-04-05T15:36:55.832Z,22.37
2019-04-05T15:39:25.292Z,21.67
2019-04-05T15:41:54.822Z,21.20
2019-04-05T15:44:43.604Z,23.50
2019-04-05T15:47:13.750Z,25.80
2019-04-05T15:49:43.481Z,22.77
2019-04-05T15:52:18.647Z,22.77
2019-04-05T15:54:44.188Z,22.20
2019-04-05T15:57:13.758Z,21.07
2019-04-05T15:59:45.045Z,22.17
2019-04-05T16:02:15.001Z,22.43
2019-04-05T16:04:44.581Z,21.37
2019-04-05T16:07:14.075Z,23.63
2019-04-05T16:09:43.590Z,23.30
2019-04-05T16:12:13.060Z,23.10
2019-04-05T16:14:42.618Z,23.33
2019-04-05T16:17:12.590Z,23.93
2019-04-05T16:19:42.299Z,23.33
2019-04-05T16:22:11.806Z,22.43
2019-04-05T16:24:41.314Z,23.40
2019-04-05T16:27:10.801Z,24.77
2019-04-05T16:29:40.252Z,23.67
2019-04-05T16:32:09.746Z,22.73
2019-04-05T16:34:39.231Z,23.23
2019-04-05T16:37:08.720Z,25.23
2019-04-05T16:39:38.204Z,23.93
2019-04-05T16:42:12.027Z,23.33
2019-04-05T16:44:41.484Z,23.27
2019-04-05T16:47:30.350Z,23.83
2019-04-05T16:49:59.853Z,24.33
2019-04-05T16:52:29.346Z,24.27
2019-04-05T16:54:58.825Z,24.40
2019-04-05T16:57:28.331Z,23.27
2019-04-05T16:59:58.863Z,24.73
2019-04-05T17:02:28.468Z,23.93
2019-04-05T17:04:58.026Z,25.03
2019-04-05T17:07:27.479Z,25.17
2019-04-05T17:09:57.225Z,25.57
2019-04-05T17:12:45.981Z,26.03
2019-04-05T17:15:16.373Z,27.10
2019-04-05T17:17:45.874Z,25.97
2019-04-05T17:20:15.870Z,25.77
2019-04-05T17:22:57.386Z,25.73
2019-04-05T17:25:16.723Z,26.13
2019-04-05T17:27:46.178Z,25.47
2019-04-05T17:30:36.398Z,25.27
2019-04-05T17:33:05.949Z,25.73
2019-04-05T17:35:36.615Z,26.30
2019-04-05T17:38:06.084Z,26.50
2019-04-05T17:40:35.584Z,25.77
2019-04-05T17:43:06.579Z,24.13
2019-04-05T17:45:36.110Z,23.90
2019-04-05T17:48:05.764Z,23.93
2019-04-05T17:50:36.028Z,23.77
2019-04-05T17:53:12.604Z,24.17
2019-04-05T17:55:37.433Z,24.87
2019-04-05T17:58:28.367Z,25.70
2019-04-05T18:00:58.127Z,25.60
2019-04-05T18:03:27.582Z,25.67
2019-04-05T18:05:57.402Z,27.87
2019-04-05T18:08:46.161Z,25.83
2019-04-05T18:11:15.678Z,25.17
2019-04-05T18:13:45.150Z,25.93
2019-04-05T18:16:14.659Z,26.67
2019-04-05T18:18:44.165Z,26.80
2019-04-05T18:21:13.645Z,26.90
2019-04-05T18:23:43.129Z,26.83
2019-04-05T18:26:12.783Z,25.87
2019-04-05T18:28:42.236Z,25.70
2019-04-05T18:31:11.739Z,24.40
2019-04-05T18:33:41.234Z,24.27
2019-04-05T18:36:10.721Z,24.70
2019-04-05T18:38:40.182Z,25.20
2019-04-05T18:41:10.012Z,25.50
2019-04-05T18:43:39.528Z,24.33
2019-04-05T18:46:09.069Z,24.43
2019-04-05T18:48:38.858Z,25.53
2019-04-05T18:51:08.346Z,26.30
2019-04-05T18:53:38.324Z,26.83
2019-04-05T18:56:07.920Z,25.63
2019-04-05T18:58:37.422Z,25.70
2019-04-05T19:01:07.286Z,26.07
2019-04-05T19:03:37.012Z,26.53
2019-04-05T19:06:07.977Z,26.83
2019-04-05T19:08:39.732Z,27.17
2019-04-05T19:11:08.685Z,24.63
2019-04-05T19:13:38.171Z,24.93
2019-04-05T19:16:07.868Z,25.73
2019-04-05T19:18:37.823Z,24.40
2019-04-05T19:21:07.465Z,26.40
2019-04-05T19:23:49.915Z,24.90
2019-04-05T19:26:08.421Z,25.47
2019-04-05T19:28:37.879Z,25.87
2019-04-05T19:49:05.647Z,25.87
2019-04-05T19:51:35.129Z,24.33
2019-04-05T19:54:05.068Z,25.63
2019-04-05T19:56:34.535Z,24.70
2019-04-05T19:59:04.014Z,25.67
2019-04-05T20:01:52.850Z,26.33
2019-04-05T20:04:22.324Z,25.33
2019-04-05T20:06:58.341Z,25.43
2019-04-05T20:09:23.295Z,26.63
2019-04-05T20:11:52.758Z,27.47
2019-04-05T20:14:22.220Z,27.40
2019-04-05T20:16:51.706Z,26.07
2019-04-05T20:19:21.210Z,25.27
2019-04-05T20:21:50.767Z,27.07
2019-04-05T20:24:20.547Z,26.40
2019-04-05T20:26:50.031Z,26.10
2019-04-05T20:29:21.635Z,26.17
2019-04-05T20:32:10.037Z,25.00
2019-04-05T20:34:39.540Z,25.97
2019-04-05T20:37:09.001Z,26.20
2019-04-05T20:39:38.518Z,26.53
2019-04-05T20:42:08.180Z,25.83
2019-04-05T20:44:37.626Z,24.37
2019-04-05T20:47:07.105Z,25.70
2019-04-05T20:49:36.614Z,25.37
2019-04-05T20:52:06.241Z,24.47
2019-04-05T20:54:35.719Z,25.53
2019-04-05T20:57:05.211Z,26.23
2019-04-05T20:59:34.690Z,24.87
2019-04-05T21:02:04.835Z,25.20
2019-04-05T21:04:34.315Z,24.83
2019-04-05T21:07:03.805Z,25.60
2019-04-05T21:09:33.593Z,24.20
2019-04-05T21:12:03.072Z,24.77
2019-04-05T21:14:32.565Z,24.17
2019-04-05T21:17:03.640Z,24.13
2019-04-05T21:19:33.190Z,22.83
2019-04-05T21:22:02.650Z,24.27
2019-04-05T21:24:36.276Z,24.40
2019-04-05T21:27:03.845Z,23.67
2019-04-05T21:29:52.694Z,23.63
2019-04-05T21:32:22.172Z,22.63
2019-04-05T21:34:51.661Z,23.17
2019-04-05T21:37:40.445Z,23.47
2019-04-05T21:40:10.723Z,22.47
2019-04-05T21:42:40.197Z,23.93
2019-04-05T21:45:10.011Z,22.47
2019-04-05T21:47:39.478Z,22.10
2019-04-05T21:50:10.920Z,21.97
2019-04-05T21:52:40.431Z,22.93
2019-04-05T21:55:10.122Z,21.47
2019-04-05T21:57:58.971Z,22.73
2019-04-05T22:00:34.585Z,22.70
2019-04-05T22:03:04.143Z,22.60
2019-04-05T22:05:35.387Z,23.23
2019-04-05T22:08:04.907Z,22.63
2019-04-05T22:10:34.441Z,22.63
2019-04-05T22:13:04.556Z,20.93
2019-04-05T22:15:34.186Z,22.50
2019-04-05T22:18:04.108Z,22.53
2019-04-05T22:20:33.583Z,21.50
2019-04-05T22:23:03.040Z,21.47
2019-04-05T22:25:32.553Z,21.23
2019-04-05T22:28:02.030Z,22.80
2019-04-05T22:30:31.523Z,22.07
2019-04-05T22:33:01.053Z,22.33
2019-04-05T22:35:30.509Z,23.40
2019-04-05T22:38:00.010Z,23.03
2019-04-05T22:40:29.496Z,21.97
2019-04-05T22:42:58.954Z,22.67
2019-04-05T22:45:47.787Z,22.23
2019-04-05T22:48:17.268Z,23.80
2019-04-05T22:50:46.723Z,23.87
2019-04-05T22:53:16.243Z,22.07
2019-04-05T22:55:45.700Z,24.90
2019-04-05T22:58:15.161Z,23.90
2019-04-05T23:00:45.081Z,23.20
2019-04-05T23:03:15.674Z,24.23
2019-04-05T23:05:45.080Z,23.77
2019-04-05T23:08:14.606Z,23.07
2019-04-05T23:10:44.054Z,22.43
2019-04-05T23:13:13.538Z,24.17
2019-04-05T23:15:43.021Z,23.73
2019-04-05T23:18:12.494Z,24.57
2019-04-05T23:21:01.343Z,23.23
2019-04-05T23:23:30.836Z,23.20
2019-04-05T23:26:00.352Z,23.03
2019-04-05T23:28:29.789Z,23.23
2019-04-05T23:30:59.299Z,22.50
2019-04-05T23:33:28.745Z,22.83
2019-04-05T23:35:58.267Z,23.33
2019-04-05T23:38:27.765Z,22.73
2019-04-05T23:40:59.573Z,23.73
2019-04-05T23:43:28.463Z,23.97
2019-04-05T23:45:58.018Z,23.60
2019-04-05T23:48:27.502Z,23.73
2019-04-05T23:50:57.007Z,23.67
2019-04-05T23:53:26.500Z,21.53
2019-04-05T23:55:55.966Z,22.57
2019-04-05T23:58:25.919Z,23.53
